Charleston, SC

5:41 PM EST on January 25, 2015 (GMT -0500)
Charleston Air Force Base-International | Change Station
CLOSE
Current Station
Airport
Location: Charleston,
Elevation: 46 ft
Nearby Weather Stations

Elev 46 ft 32.90 °N, 80.04 °W | Updated 45 minutes ago

Clear
Clear
53 °F
Feels Like 53 °F
N
15
Wind Variable Wind from South

Today
High -- | Low -- °F
--% Chance of Precip.
Yesterday
High -- | Low -- °F
Precip. -- in
7:18 AM 5:45 PM
Waxing Crescent, 36% visible
Pressure 29.88 in
Visibility 10.0 miles
Clouds Few 20000 ft
Dew Point 35 °F
Humidity 50%
Rainfall 0.00 in
Snow Depth Not available.
UV 0 out of 12
Pollen 4.10 out of 12
Air Quality Not available.
Flu Activity Not available.
METAR KCHS 252156Z 19013KT 10SM FEW200 12/02 A2988 RMK AO2 SLP117 T01170017 $

More Conditions Fewer Conditions

Pressure 29.88 in
Visibility 10.0 miles
Clouds Few 20000 ft
Dew Point 35 °F
Humidity 50%
Rainfall 0.00 in
Snow Depth Not available.
UV 0 out of 12
Pollen 4.10 out of 12
Air Quality Not available.
Flu Activity Not available.
METAR KCHS 252156Z 19013KT 10SM FEW200 12/02 A2988 RMK AO2 SLP117 T01170017 $

More Conditions Fewer Conditions

10-Day Weather Forecast

Almanac

Astronomy

Jan. 25, 2015 Rise Set
Actual Time
Civil Twilight
Nautical Twilight
Astronomical Twilight
Moon
Length of Visible Light
Length of Day
Tomorrow will be .
, % of the Moon is Illuminated

Today's Extremes

State Highs State Lows

Community

WunderPhotos

Upload Photos

1,790,079 photos uploaded!

WunderBlogs® & News

Nearby

Air Quality

  Air Quality AQ Index Pollutant
Not available.

Snow Depth

Station Depth Elevation

Earthquake Activity

City Distance Mag. Time & Date
Minimum magnitude displayed is 2.5.

Coastal Water Temperatures

Place Temperature

Nearby Weather Stations